sensor_id;sensor_type;location;lat;lon;timestamp;temperature;humidity
36372;DHT22;22398;51.346;12.372;2023-04-01T00:04:52;10.20;99.90
36372;DHT22;22398;51.346;12.372;2023-04-01T00:09:55;10.10;99.90
36372;DHT22;22398;51.346;12.372;2023-04-01T00:14:59;10.10;99.90
36372;DHT22;22398;51.346;12.372;2023-04-01T00:20:05;10.20;99.90
36372;DHT22;22398;51.346;12.372;2023-04-01T00:25:09;10.10;99.90
36372;DHT22;22398;51.346;12.372;2023-04-01T00:30:13;10.10;99.90
36372;DHT22;22398;51.346;12.372;2023-04-01T00:35:18;10.00;99.90
36372;DHT22;22398;51.346;12.372;2023-04-01T00:40:25;9.80;99.90
36372;DHT22;22398;51.346;12.372;2023-04-01T00:45:32;9.70;99.90
36372;DHT22;22398;51.346;12.372;2023-04-01T00:50:38;9.70;99.90
36372;DHT22;22398;51.346;12.372;2023-04-01T00:55:48;9.60;99.90
36372;DHT22;22398;51.346;12.372;2023-04-01T01:00:55;9.50;99.90
36372;DHT22;22398;51.346;12.372;2023-04-01T01:06:08;9.50;99.90
36372;DHT22;22398;51.346;12.372;2023-04-01T01:11:19;9.60;99.90
36372;DHT22;22398;51.346;12.372;2023-04-01T01:16:26;9.50;99.90
36372;DHT22;22398;51.346;12.372;2023-04-01T01:21:50;9.50;99.90
36372;DHT22;22398;51.346;12.372;2023-04-01T01:27:02;9.60;99.90
36372;DHT22;22398;51.346;12.372;2023-04-01T01:32:16;9.60;99.90
36372;DHT22;22398;51.346;12.372;2023-04-01T01:37:25;9.60;99.90
36372;DHT22;22398;51.346;12.372;2023-04-01T01:42:31;9.60;99.90
36372;DHT22;22398;51.346;12.372;2023-04-01T01:47:37;9.70;99.90
36372;DHT22;22398;51.346;12.372;2023-04-01T01:52:42;9.70;99.90
36372;DHT22;22398;51.346;12.372;2023-04-01T01:57:47;9.80;99.90
36372;DHT22;22398;51.346;12.372;2023-04-01T02:02:51;9.80;99.90
36372;DHT22;22398;51.346;12.372;2023-04-01T02:08:01;9.90;99.90
36372;DHT22;22398;51.346;12.372;2023-04-01T02:13:09;9.90;99.90
36372;DHT22;22398;51.346;12.372;2023-04-01T02:18:16;9.90;99.90
36372;DHT22;22398;51.346;12.372;2023-04-01T02:23:22;10.00;99.90
36372;DHT22;22398;51.346;12.372;2023-04-01T02:28:27;10.00;99.90
36372;DHT22;22398;51.346;12.372;2023-04-01T02:33:31;10.10;99.90
36372;DHT22;22398;51.346;12.372;2023-04-01T02:38:37;10.10;99.90
36372;DHT22;22398;51.346;12.372;2023-04-01T02:43:40;10.10;99.90
36372;DHT22;22398;51.346;12.372;2023-04-01T02:48:44;10.20;99.90
36372;DHT22;22398;51.346;12.372;2023-04-01T02:53:48;10.10;99.90
36372;DHT22;22398;51.346;12.372;2023-04-01T02:58:52;10.20;99.90
36372;DHT22;22398;51.346;12.372;2023-04-01T03:03:56;10.20;99.90
36372;DHT22;22398;51.346;12.372;2023-04-01T03:09:01;10.20;99.90
36372;DHT22;22398;51.346;12.372;2023-04-01T03:14:06;10.20;99.90
36372;DHT22;22398;51.346;12.372;2023-04-01T03:19:10;10.20;99.90
36372;DHT22;22398;51.346;12.372;2023-04-01T03:24:15;10.20;99.90
36372;DHT22;22398;51.346;12.372;2023-04-01T03:29:18;10.20;99.90
36372;DHT22;22398;51.346;12.372;2023-04-01T03:34:22;10.20;99.90
36372;DHT22;22398;51.346;12.372;2023-04-01T03:39:26;10.20;99.90
36372;DHT22;22398;51.346;12.372;2023-04-01T03:44:31;10.10;99.90
36372;DHT22;22398;51.346;12.372;2023-04-01T03:49:35;10.10;99.90
36372;DHT22;22398;51.346;12.372;2023-04-01T03:54:40;10.00;99.90
36372;DHT22;22398;51.346;12.372;2023-04-01T03:59:44;9.90;99.90
36372;DHT22;22398;51.346;12.372;2023-04-01T04:04:47;9.90;99.90
36372;DHT22;22398;51.346;12.372;2023-04-01T04:09:52;9.80;99.90
36372;DHT22;22398;51.346;12.372;2023-04-01T04:14:55;9.80;99.90
36372;DHT22;22398;51.346;12.372;2023-04-01T04:19:58;9.80;99.90
36372;DHT22;22398;51.346;12.372;2023-04-01T04:25:04;9.80;99.90
36372;DHT22;22398;51.346;12.372;2023-04-01T04:30:09;9.80;99.90
36372;DHT22;22398;51.346;12.372;2023-04-01T04:35:13;9.70;99.90
36372;DHT22;22398;51.346;12.372;2023-04-01T04:40:18;9.70;99.90
36372;DHT22;22398;51.346;12.372;2023-04-01T04:45:22;9.70;99.90
36372;DHT22;22398;51.346;12.372;2023-04-01T04:50:29;9.60;99.90
36372;DHT22;22398;51.346;12.372;2023-04-01T04:55:34;9.60;99.90
36372;DHT22;22398;51.346;12.372;2023-04-01T05:00:55;9.60;99.90
36372;DHT22;22398;51.346;12.372;2023-04-01T05:06:04;9.70;99.90
36372;DHT22;22398;51.346;12.372;2023-04-01T05:11:12;9.70;99.90
36372;DHT22;22398;51.346;12.372;2023-04-01T05:16:19;9.80;99.90
36372;DHT22;22398;51.346;12.372;2023-04-01T05:21:23;9.80;99.90
36372;DHT22;22398;51.346;12.372;2023-04-01T05:26:29;9.90;99.90
36372;DHT22;22398;51.346;12.372;2023-04-01T05:31:34;10.00;99.90
36372;DHT22;22398;51.346;12.372;2023-04-01T05:36:39;10.20;99.90
36372;DHT22;22398;51.346;12.372;2023-04-01T05:41:45;10.40;99.90
36372;DHT22;22398;51.346;12.372;2023-04-01T05:46:50;10.70;99.90
36372;DHT22;22398;51.346;12.372;2023-04-01T05:51:59;10.80;99.90
36372;DHT22;22398;51.346;12.372;2023-04-01T05:57:04;10.80;99.90
36372;DHT22;22398;51.346;12.372;2023-04-01T06:02:08;10.70;99.90
36372;DHT22;22398;51.346;12.372;2023-04-01T06:07:13;10.70;99.90
36372;DHT22;22398;51.346;12.372;2023-04-01T06:12:30;10.80;99.90
36372;DHT22;22398;51.346;12.372;2023-04-01T06:17:48;10.90;99.90
36372;DHT22;22398;51.346;12.372;2023-04-01T06:23:30;11.00;99.90
36372;DHT22;22398;51.346;12.372;2023-04-01T06:28:49;11.20;99.90
36372;DHT22;22398;51.346;12.372;2023-04-01T06:34:14;11.30;99.90
36372;DHT22;22398;51.346;12.372;2023-04-01T06:39:33;11.50;99.90
36372;DHT22;22398;51.346;12.372;2023-04-01T06:44:46;11.50;99.90
36372;DHT22;22398;51.346;12.372;2023-04-01T06:50:23;11.50;99.90
36372;DHT22;22398;51.346;12.372;2023-04-01T06:55:49;11.60;99.90
36372;DHT22;22398;51.346;12.372;2023-04-01T07:01:31;11.70;99.90
36372;DHT22;22398;51.346;12.372;2023-04-01T07:06:38;11.80;99.90
36372;DHT22;22398;51.346;12.372;2023-04-01T07:11:43;12.00;99.90
36372;DHT22;22398;51.346;12.372;2023-04-01T07:17:11;12.20;99.90
36372;DHT22;22398;51.346;12.372;2023-04-01T07:22:23;12.60;99.90
36372;DHT22;22398;51.346;12.372;2023-04-01T07:27:38;12.90;99.90
36372;DHT22;22398;51.346;12.372;2023-04-01T07:32:47;13.20;99.90
36372;DHT22;22398;51.346;12.372;2023-04-01T07:38:11;13.20;99.90
36372;DHT22;22398;51.346;12.372;2023-04-01T07:43:34;13.20;99.90
36372;DHT22;22398;51.346;12.372;2023-04-01T07:49:15;13.10;99.90
36372;DHT22;22398;51.346;12.372;2023-04-01T07:54:24;13.30;99.90
36372;DHT22;22398;51.346;12.372;2023-04-01T07:59:33;13.60;99.90
36372;DHT22;22398;51.346;12.372;2023-04-01T08:05:02;14.00;99.90
36372;DHT22;22398;51.346;12.372;2023-04-01T08:10:13;14.10;99.90
36372;DHT22;22398;51.346;12.372;2023-04-01T08:15:40;13.90;99.90
36372;DHT22;22398;51.346;12.372;2023-04-01T08:20:59;12.70;99.90
36372;DHT22;22398;51.346;12.372;2023-04-01T08:26:06;13.60;99.90
36372;DHT22;22398;51.346;12.372;2023-04-01T08:31:19;13.50;99.90
36372;DHT22;22398;51.346;12.372;2023-04-01T08:36:30;13.90;99.90
36372;DHT22;22398;51.346;12.372;2023-04-01T08:42:04;14.20;99.90
36372;DHT22;22398;51.346;12.372;2023-04-01T08:47:36;14.30;99.90
36372;DHT22;22398;51.346;12.372;2023-04-01T08:52:51;14.30;99.90
36372;DHT22;22398;51.346;12.372;2023-04-01T08:58:26;14.40;99.90
36372;DHT22;22398;51.346;12.372;2023-04-01T09:04:13;14.30;99.90
36372;DHT22;22398;51.346;12.372;2023-04-01T09:15:13;14.70;99.50
36372;DHT22;22398;51.346;12.372;2023-04-01T09:26:13;15.30;98.80
36372;DHT22;22398;51.346;12.372;2023-04-01T09:31:44;15.40;98.30
36372;DHT22;22398;51.346;12.372;2023-04-01T09:37:20;15.30;97.30
36372;DHT22;22398;51.346;12.372;2023-04-01T09:42:42;15.20;97.00
36372;DHT22;22398;51.346;12.372;2023-04-01T09:48:03;15.20;96.50
36372;DHT22;22398;51.346;12.372;2023-04-01T09:53:20;15.10;96.20
36372;DHT22;22398;51.346;12.372;2023-04-01T09:59:01;15.10;96.00
36372;DHT22;22398;51.346;12.372;2023-04-01T10:04:56;15.30;95.60
36372;DHT22;22398;51.346;12.372;2023-04-01T10:10:39;15.20;95.40
36372;DHT22;22398;51.346;12.372;2023-04-01T10:16:27;15.30;95.20
36372;DHT22;22398;51.346;12.372;2023-04-01T10:27:31;14.70;94.60
36372;DHT22;22398;51.346;12.372;2023-04-01T10:33:06;14.40;94.80
36372;DHT22;22398;51.346;12.372;2023-04-01T10:38:55;14.20;95.20
36372;DHT22;22398;51.346;12.372;2023-04-01T10:49:51;14.10;95.50
36372;DHT22;22398;51.346;12.372;2023-04-01T10:55:26;14.00;95.80
36372;DHT22;22398;51.346;12.372;2023-04-01T11:01:13;14.00;96.00
36372;DHT22;22398;51.346;12.372;2023-04-01T11:07:27;14.00;95.70
36372;DHT22;22398;51.346;12.372;2023-04-01T11:13:00;13.90;94.70
36372;DHT22;22398;51.346;12.372;2023-04-01T11:18:29;13.70;95.10
36372;DHT22;22398;51.346;12.372;2023-04-01T11:23:54;13.80;95.30
36372;DHT22;22398;51.346;12.372;2023-04-01T11:29:37;14.00;95.40
36372;DHT22;22398;51.346;12.372;2023-04-01T11:35:21;14.00;95.30
36372;DHT22;22398;51.346;12.372;2023-04-01T11:40:35;14.00;95.00
36372;DHT22;22398;51.346;12.372;2023-04-01T11:46:24;14.30;95.00
36372;DHT22;22398;51.346;12.372;2023-04-01T11:51:51;15.50;94.50
36372;DHT22;22398;51.346;12.372;2023-04-01T11:57:07;15.80;92.90
36372;DHT22;22398;51.346;12.372;2023-04-01T12:02:21;15.40;91.80
36372;DHT22;22398;51.346;12.372;2023-04-01T12:07:45;14.80;91.70
36372;DHT22;22398;51.346;12.372;2023-04-01T12:13:01;14.30;92.90
36372;DHT22;22398;51.346;12.372;2023-04-01T12:18:14;14.10;93.80
36372;DHT22;22398;51.346;12.372;2023-04-01T12:23:36;13.90;94.30
36372;DHT22;22398;51.346;12.372;2023-04-01T12:28:54;13.80;94.70
36372;DHT22;22398;51.346;12.372;2023-04-01T12:34:19;13.70;94.90
36372;DHT22;22398;51.346;12.372;2023-04-01T12:39:44;13.80;95.20
36372;DHT22;22398;51.346;12.372;2023-04-01T12:45:03;13.70;95.50
36372;DHT22;22398;51.346;12.372;2023-04-01T12:55:42;14.00;95.90
36372;DHT22;22398;51.346;12.372;2023-04-01T13:00:59;14.30;95.40
36372;DHT22;22398;51.346;12.372;2023-04-01T13:06:25;14.40;95.10
36372;DHT22;22398;51.346;12.372;2023-04-01T13:11:40;14.50;94.60
36372;DHT22;22398;51.346;12.372;2023-04-01T13:16:54;14.60;94.30
36372;DHT22;22398;51.346;12.372;2023-04-01T13:22:04;14.60;94.20
36372;DHT22;22398;51.346;12.372;2023-04-01T13:27:16;14.60;93.90
36372;DHT22;22398;51.346;12.372;2023-04-01T13:32:32;14.60;93.90
36372;DHT22;22398;51.346;12.372;2023-04-01T13:37:52;14.70;94.10
36372;DHT22;22398;51.346;12.372;2023-04-01T13:43:00;14.70;94.30
36372;DHT22;22398;51.346;12.372;2023-04-01T13:48:27;14.70;94.20
36372;DHT22;22398;51.346;12.372;2023-04-01T13:59:16;14.40;94.80
36372;DHT22;22398;51.346;12.372;2023-04-01T14:04:44;14.30;94.90
36372;DHT22;22398;51.346;12.372;2023-04-01T14:10:05;14.30;95.00
36372;DHT22;22398;51.346;12.372;2023-04-01T14:15:29;14.10;95.30
36372;DHT22;22398;51.346;12.372;2023-04-01T14:20:40;14.10;96.00
36372;DHT22;22398;51.346;12.372;2023-04-01T14:31:30;13.80;96.70
36372;DHT22;22398;51.346;12.372;2023-04-01T14:36:54;13.70;97.00
36372;DHT22;22398;51.346;12.372;2023-04-01T14:42:23;13.50;97.40
36372;DHT22;22398;51.346;12.372;2023-04-01T14:47:42;13.30;98.00
36372;DHT22;22398;51.346;12.372;2023-04-01T14:52:55;13.00;99.00
36372;DHT22;22398;51.346;12.372;2023-04-01T14:58:11;12.90;99.90
36372;DHT22;22398;51.346;12.372;2023-04-01T15:03:20;12.90;99.90
36372;DHT22;22398;51.346;12.372;2023-04-01T15:08:29;12.90;99.90
36372;DHT22;22398;51.346;12.372;2023-04-01T15:13:54;12.90;99.90
36372;DHT22;22398;51.346;12.372;2023-04-01T15:19:08;12.80;99.90
36372;DHT22;22398;51.346;12.372;2023-04-01T15:24:21;12.70;99.90
36372;DHT22;22398;51.346;12.372;2023-04-01T15:29:35;12.70;99.90
36372;DHT22;22398;51.346;12.372;2023-04-01T15:34:49;12.90;99.90
36372;DHT22;22398;51.346;12.372;2023-04-01T15:40:02;12.90;99.90
36372;DHT22;22398;51.346;12.372;2023-04-01T15:45:18;12.80;99.90
36372;DHT22;22398;51.346;12.372;2023-04-01T15:50:49;12.50;99.90
36372;DHT22;22398;51.346;12.372;2023-04-01T15:55:58;12.20;99.90
36372;DHT22;22398;51.346;12.372;2023-04-01T16:01:11;12.10;99.90
36372;DHT22;22398;51.346;12.372;2023-04-01T16:06:30;12.00;99.90
36372;DHT22;22398;51.346;12.372;2023-04-01T16:11:43;12.00;99.90
36372;DHT22;22398;51.346;12.372;2023-04-01T16:17:00;11.90;99.90
36372;DHT22;22398;51.346;12.372;2023-04-01T16:22:12;11.90;99.90
36372;DHT22;22398;51.346;12.372;2023-04-01T16:27:26;11.90;99.90
36372;DHT22;22398;51.346;12.372;2023-04-01T16:32:37;11.90;99.90
36372;DHT22;22398;51.346;12.372;2023-04-01T16:37:48;11.80;99.90
36372;DHT22;22398;51.346;12.372;2023-04-01T16:42:57;11.80;99.90
36372;DHT22;22398;51.346;12.372;2023-04-01T16:48:12;11.80;99.90
36372;DHT22;22398;51.346;12.372;2023-04-01T16:53:21;11.80;99.90
36372;DHT22;22398;51.346;12.372;2023-04-01T16:58:36;11.80;99.90
36372;DHT22;22398;51.346;12.372;2023-04-01T17:03:42;11.90;99.90
36372;DHT22;22398;51.346;12.372;2023-04-01T17:09:05;11.80;99.90
36372;DHT22;22398;51.346;12.372;2023-04-01T17:14:16;11.60;99.90
36372;DHT22;22398;51.346;12.372;2023-04-01T17:19:34;11.60;99.90
36372;DHT22;22398;51.346;12.372;2023-04-01T17:24:54;11.50;99.90
36372;DHT22;22398;51.346;12.372;2023-04-01T17:30:12;11.40;99.90
36372;DHT22;22398;51.346;12.372;2023-04-01T17:35:20;11.40;99.90
36372;DHT22;22398;51.346;12.372;2023-04-01T17:40:36;11.30;99.90
36372;DHT22;22398;51.346;12.372;2023-04-01T17:45:47;11.20;99.90
36372;DHT22;22398;51.346;12.372;2023-04-01T17:51:05;11.10;99.90
36372;DHT22;22398;51.346;12.372;2023-04-01T17:56:16;11.00;99.90
36372;DHT22;22398;51.346;12.372;2023-04-01T18:01:36;11.00;99.90
36372;DHT22;22398;51.346;12.372;2023-04-01T18:06:59;10.90;99.90
36372;DHT22;22398;51.346;12.372;2023-04-01T18:12:11;10.80;99.90
36372;DHT22;22398;51.346;12.372;2023-04-01T18:17:24;10.80;99.90
36372;DHT22;22398;51.346;12.372;2023-04-01T18:22:34;10.70;99.90
36372;DHT22;22398;51.346;12.372;2023-04-01T18:27:43;10.70;99.90
36372;DHT22;22398;51.346;12.372;2023-04-01T18:32:51;10.70;99.90
36372;DHT22;22398;51.346;12.372;2023-04-01T18:38:00;10.60;99.90
36372;DHT22;22398;51.346;12.372;2023-04-01T18:43:21;10.50;99.90
36372;DHT22;22398;51.346;12.372;2023-04-01T18:48:51;10.50;99.90
36372;DHT22;22398;51.346;12.372;2023-04-01T18:53:57;10.40;99.90
36372;DHT22;22398;51.346;12.372;2023-04-01T18:59:05;10.30;99.90
36372;DHT22;22398;51.346;12.372;2023-04-01T19:04:19;10.30;99.90
36372;DHT22;22398;51.346;12.372;2023-04-01T19:09:27;10.30;99.90
36372;DHT22;22398;51.346;12.372;2023-04-01T19:14:44;10.30;99.90
36372;DHT22;22398;51.346;12.372;2023-04-01T19:19:56;10.30;99.90
36372;DHT22;22398;51.346;12.372;2023-04-01T19:25:32;10.30;99.90
36372;DHT22;22398;51.346;12.372;2023-04-01T19:30:48;10.20;99.90
36372;DHT22;22398;51.346;12.372;2023-04-01T19:36:02;10.10;99.90
36372;DHT22;22398;51.346;12.372;2023-04-01T19:41:20;10.00;99.90
36372;DHT22;22398;51.346;12.372;2023-04-01T19:46:30;9.90;99.90
36372;DHT22;22398;51.346;12.372;2023-04-01T19:51:41;9.80;99.90
36372;DHT22;22398;51.346;12.372;2023-04-01T19:56:50;9.70;99.90
36372;DHT22;22398;51.346;12.372;2023-04-01T20:02:03;9.60;99.90
36372;DHT22;22398;51.346;12.372;2023-04-01T20:07:23;9.50;99.90
36372;DHT22;22398;51.346;12.372;2023-04-01T20:12:41;9.40;99.90
36372;DHT22;22398;51.346;12.372;2023-04-01T20:17:48;9.40;99.90
36372;DHT22;22398;51.346;12.372;2023-04-01T20:23:23;9.40;99.90
36372;DHT22;22398;51.346;12.372;2023-04-01T20:28:32;9.30;99.90
36372;DHT22;22398;51.346;12.372;2023-04-01T20:39:44;9.10;99.90
36372;DHT22;22398;51.346;12.372;2023-04-01T20:44:59;9.00;99.90
36372;DHT22;22398;51.346;12.372;2023-04-01T20:50:18;8.90;99.90
36372;DHT22;22398;51.346;12.372;2023-04-01T20:55:55;8.80;99.90
36372;DHT22;22398;51.346;12.372;2023-04-01T21:01:11;8.60;99.90
36372;DHT22;22398;51.346;12.372;2023-04-01T21:06:35;8.60;99.90
36372;DHT22;22398;51.346;12.372;2023-04-01T21:11:49;8.50;99.90
36372;DHT22;22398;51.346;12.372;2023-04-01T21:17:01;8.40;99.90
36372;DHT22;22398;51.346;12.372;2023-04-01T21:33:40;8.10;99.90
36372;DHT22;22398;51.346;12.372;2023-04-01T21:38:56;8.00;99.90
36372;DHT22;22398;51.346;12.372;2023-04-01T21:44:27;8.00;99.90
36372;DHT22;22398;51.346;12.372;2023-04-01T21:49:47;7.90;99.90
36372;DHT22;22398;51.346;12.372;2023-04-01T22:01:01;7.70;99.90
36372;DHT22;22398;51.346;12.372;2023-04-01T22:06:12;7.40;99.90
36372;DHT22;22398;51.346;12.372;2023-04-01T22:11:24;7.30;99.90
36372;DHT22;22398;51.346;12.372;2023-04-01T22:16:40;7.10;99.90
36372;DHT22;22398;51.346;12.372;2023-04-01T22:21:52;7.00;99.90
36372;DHT22;22398;51.346;12.372;2023-04-01T22:27:07;6.80;99.90
36372;DHT22;22398;51.346;12.372;2023-04-01T22:32:17;6.80;99.90
36372;DHT22;22398;51.346;12.372;2023-04-01T22:37:27;6.80;99.90
36372;DHT22;22398;51.346;12.372;2023-04-01T22:42:42;6.70;99.90
36372;DHT22;22398;51.346;12.372;2023-04-01T22:47:52;6.50;99.90
36372;DHT22;22398;51.346;12.372;2023-04-01T22:53:12;6.50;99.90
36372;DHT22;22398;51.346;12.372;2023-04-01T22:58:20;6.30;99.90
36372;DHT22;22398;51.346;12.372;2023-04-01T23:03:29;6.20;99.90
36372;DHT22;22398;51.346;12.372;2023-04-01T23:09:01;6.10;99.90
36372;DHT22;22398;51.346;12.372;2023-04-01T23:20:02;5.90;99.90
36372;DHT22;22398;51.346;12.372;2023-04-01T23:25:18;5.90;99.90
36372;DHT22;22398;51.346;12.372;2023-04-01T23:30:54;5.90;99.90
36372;DHT22;22398;51.346;12.372;2023-04-01T23:36:01;5.80;99.90
36372;DHT22;22398;51.346;12.372;2023-04-01T23:41:09;5.70;99.90
36372;DHT22;22398;51.346;12.372;2023-04-01T23:46:19;5.60;99.90
36372;DHT22;22398;51.346;12.372;2023-04-01T23:51:26;5.50;99.90
36372;DHT22;22398;51.346;12.372;2023-04-01T23:56:39;5.50;99.90
